sensor_id;sensor_type;location;lat;lon;timestamp;P1;durP1;ratioP1;P2;durP2;ratioP2
57778;SDS011;43608;49.486;9.640;2023-04-15T00:00:14;3.90;;;2.60;;
57778;SDS011;43608;49.486;9.640;2023-04-15T00:00:45;4.18;;;2.50;;
57778;SDS011;43608;49.486;9.640;2023-04-15T00:01:16;4.43;;;2.50;;
57778;SDS011;43608;49.486;9.640;2023-04-15T00:01:48;3.97;;;2.50;;
57778;SDS011;43608;49.486;9.640;2023-04-15T00:02:18;3.50;;;2.33;;
57778;SDS011;43608;49.486;9.640;2023-04-15T00:02:49;2.95;;;2.20;;
57778;SDS011;43608;49.486;9.640;2023-04-15T00:03:19;4.75;;;2.60;;
57778;SDS011;43608;49.486;9.640;2023-04-15T00:03:50;4.10;;;2.50;;
57778;SDS011;43608;49.486;9.640;2023-04-15T00:04:22;4.07;;;2.50;;
57778;SDS011;43608;49.486;9.640;2023-04-15T00:04:53;3.50;;;2.47;;
57778;SDS011;43608;49.486;9.640;2023-04-15T00:05:23;3.15;;;2.30;;
57778;SDS011;43608;49.486;9.640;2023-04-15T00:05:53;3.05;;;2.28;;
57778;SDS011;43608;49.486;9.640;2023-04-15T00:06:24;3.17;;;2.47;;
57778;SDS011;43608;49.486;9.640;2023-04-15T00:06:55;3.30;;;2.22;;
57778;SDS011;43608;49.486;9.640;2023-04-15T00:07:25;2.72;;;2.17;;
57778;SDS011;43608;49.486;9.640;2023-04-15T00:07:56;3.30;;;2.40;;
57778;SDS011;43608;49.486;9.640;2023-04-15T00:08:27;3.28;;;2.42;;
57778;SDS011;43608;49.486;9.640;2023-04-15T00:08:59;3.42;;;2.40;;
57778;SDS011;43608;49.486;9.640;2023-04-15T00:09:29;4.05;;;2.67;;
57778;SDS011;43608;49.486;9.640;2023-04-15T00:10:00;3.92;;;2.53;;
57778;SDS011;43608;49.486;9.640;2023-04-15T00:10:31;3.22;;;2.20;;
57778;SDS011;43608;49.486;9.640;2023-04-15T00:11:01;3.00;;;2.10;;
57778;SDS011;43608;49.486;9.640;2023-04-15T00:11:34;3.15;;;2.28;;
57778;SDS011;43608;49.486;9.640;2023-04-15T00:12:05;4.93;;;2.40;;
57778;SDS011;43608;49.486;9.640;2023-04-15T00:12:35;3.58;;;2.53;;
57778;SDS011;43608;49.486;9.640;2023-04-15T00:13:06;3.45;;;2.35;;
57778;SDS011;43608;49.486;9.640;2023-04-15T00:13:36;3.83;;;2.50;;
57778;SDS011;43608;49.486;9.640;2023-04-15T00:14:07;4.28;;;2.63;;
57778;SDS011;43608;49.486;9.640;2023-04-15T00:14:38;4.13;;;2.72;;
57778;SDS011;43608;49.486;9.640;2023-04-15T00:15:08;3.80;;;2.63;;
57778;SDS011;43608;49.486;9.640;2023-04-15T00:15:39;3.50;;;2.45;;
57778;SDS011;43608;49.486;9.640;2023-04-15T00:16:10;4.07;;;2.60;;
57778;SDS011;43608;49.486;9.640;2023-04-15T00:16:40;3.72;;;2.67;;
57778;SDS011;43608;49.486;9.640;2023-04-15T00:17:11;3.28;;;2.22;;
57778;SDS011;43608;49.486;9.640;2023-04-15T00:17:41;2.60;;;2.15;;
57778;SDS011;43608;49.486;9.640;2023-04-15T00:18:11;4.78;;;2.30;;
57778;SDS011;43608;49.486;9.640;2023-04-15T00:18:42;2.63;;;2.20;;
57778;SDS011;43608;49.486;9.640;2023-04-15T00:19:13;3.60;;;2.30;;
57778;SDS011;43608;49.486;9.640;2023-04-15T00:19:43;3.42;;;2.40;;
57778;SDS011;43608;49.486;9.640;2023-04-15T00:20:14;3.40;;;2.40;;
57778;SDS011;43608;49.486;9.640;2023-04-15T00:20:45;3.45;;;2.45;;
57778;SDS011;43608;49.486;9.640;2023-04-15T00:21:16;3.40;;;2.50;;
57778;SDS011;43608;49.486;9.640;2023-04-15T00:21:46;4.70;;;2.53;;
57778;SDS011;43608;49.486;9.640;2023-04-15T00:22:16;3.20;;;2.45;;
57778;SDS011;43608;49.486;9.640;2023-04-15T00:22:47;4.15;;;2.58;;
57778;SDS011;43608;49.486;9.640;2023-04-15T00:23:17;3.63;;;2.38;;
57778;SDS011;43608;49.486;9.640;2023-04-15T00:23:48;3.38;;;2.40;;
57778;SDS011;43608;49.486;9.640;2023-04-15T00:24:21;3.67;;;2.60;;
57778;SDS011;43608;49.486;9.640;2023-04-15T00:24:52;3.65;;;2.50;;
57778;SDS011;43608;49.486;9.640;2023-04-15T00:25:23;3.30;;;2.40;;
57778;SDS011;43608;49.486;9.640;2023-04-15T00:25:53;3.08;;;2.45;;
57778;SDS011;43608;49.486;9.640;2023-04-15T00:26:24;3.28;;;2.30;;
57778;SDS011;43608;49.486;9.640;2023-04-15T00:26:54;3.00;;;2.38;;
57778;SDS011;43608;49.486;9.640;2023-04-15T00:27:24;3.38;;;2.42;;
57778;SDS011;43608;49.486;9.640;2023-04-15T00:27:55;3.35;;;2.53;;
57778;SDS011;43608;49.486;9.640;2023-04-15T00:28:25;3.63;;;2.40;;
57778;SDS011;43608;49.486;9.640;2023-04-15T00:28:56;3.42;;;2.40;;
57778;SDS011;43608;49.486;9.640;2023-04-15T00:29:27;3.17;;;2.33;;
57778;SDS011;43608;49.486;9.640;2023-04-15T00:29:57;3.03;;;2.35;;
57778;SDS011;43608;49.486;9.640;2023-04-15T00:30:27;3.28;;;2.30;;
57778;SDS011;43608;49.486;9.640;2023-04-15T00:30:58;3.28;;;2.40;;
57778;SDS011;43608;49.486;9.640;2023-04-15T00:31:28;3.20;;;2.33;;
57778;SDS011;43608;49.486;9.640;2023-04-15T00:32:00;4.35;;;2.50;;
57778;SDS011;43608;49.486;9.640;2023-04-15T00:32:30;3.15;;;2.30;;
57778;SDS011;43608;49.486;9.640;2023-04-15T00:33:01;3.15;;;2.22;;
57778;SDS011;43608;49.486;9.640;2023-04-15T00:33:31;3.45;;;2.50;;
57778;SDS011;43608;49.486;9.640;2023-04-15T00:34:01;3.05;;;2.33;;
57778;SDS011;43608;49.486;9.640;2023-04-15T00:34:32;2.90;;;2.30;;
57778;SDS011;43608;49.486;9.640;2023-04-15T00:35:03;2.97;;;2.20;;
57778;SDS011;43608;49.486;9.640;2023-04-15T00:35:33;3.22;;;2.22;;
57778;SDS011;43608;49.486;9.640;2023-04-15T00:36:05;3.25;;;2.40;;
57778;SDS011;43608;49.486;9.640;2023-04-15T00:36:37;2.63;;;2.05;;
57778;SDS011;43608;49.486;9.640;2023-04-15T00:37:08;3.10;;;2.20;;
57778;SDS011;43608;49.486;9.640;2023-04-15T00:37:39;2.95;;;2.28;;
57778;SDS011;43608;49.486;9.640;2023-04-15T00:38:09;2.67;;;2.00;;
57778;SDS011;43608;49.486;9.640;2023-04-15T00:38:40;3.08;;;2.30;;
57778;SDS011;43608;49.486;9.640;2023-04-15T00:39:11;3.28;;;2.30;;
57778;SDS011;43608;49.486;9.640;2023-04-15T00:39:41;2.50;;;2.28;;
57778;SDS011;43608;49.486;9.640;2023-04-15T00:40:12;3.28;;;2.30;;
57778;SDS011;43608;49.486;9.640;2023-04-15T00:40:42;2.95;;;2.10;;
57778;SDS011;43608;49.486;9.640;2023-04-15T00:41:13;3.35;;;2.40;;
57778;SDS011;43608;49.486;9.640;2023-04-15T00:41:45;2.85;;;2.20;;
57778;SDS011;43608;49.486;9.640;2023-04-15T00:42:16;3.33;;;2.30;;
57778;SDS011;43608;49.486;9.640;2023-04-15T00:42:47;2.60;;;2.10;;
57778;SDS011;43608;49.486;9.640;2023-04-15T00:43:18;2.97;;;2.28;;
57778;SDS011;43608;49.486;9.640;2023-04-15T00:43:48;3.00;;;2.20;;
57778;SDS011;43608;49.486;9.640;2023-04-15T00:44:19;2.97;;;2.20;;
57778;SDS011;43608;49.486;9.640;2023-04-15T00:44:49;2.53;;;2.08;;
57778;SDS011;43608;49.486;9.640;2023-04-15T00:45:19;2.70;;;2.10;;
57778;SDS011;43608;49.486;9.640;2023-04-15T00:45:50;2.40;;;2.03;;
57778;SDS011;43608;49.486;9.640;2023-04-15T00:46:22;2.83;;;2.30;;
57778;SDS011;43608;49.486;9.640;2023-04-15T00:46:57;2.80;;;2.20;;
57778;SDS011;43608;49.486;9.640;2023-04-15T00:47:29;2.63;;;2.00;;
57778;SDS011;43608;49.486;9.640;2023-04-15T00:48:02;3.20;;;2.28;;
57778;SDS011;43608;49.486;9.640;2023-04-15T00:48:34;3.08;;;2.15;;
57778;SDS011;43608;49.486;9.640;2023-04-15T00:49:05;2.97;;;2.10;;
57778;SDS011;43608;49.486;9.640;2023-04-15T00:49:36;3.25;;;2.30;;
57778;SDS011;43608;49.486;9.640;2023-04-15T00:50:07;3.13;;;2.35;;
57778;SDS011;43608;49.486;9.640;2023-04-15T00:50:37;3.67;;;2.47;;
57778;SDS011;43608;49.486;9.640;2023-04-15T00:51:08;3.00;;;2.22;;
57778;SDS011;43608;49.486;9.640;2023-04-15T00:51:38;2.72;;;2.10;;
57778;SDS011;43608;49.486;9.640;2023-04-15T00:52:09;2.85;;;2.20;;
57778;SDS011;43608;49.486;9.640;2023-04-15T00:52:39;2.30;;;2.00;;
57778;SDS011;43608;49.486;9.640;2023-04-15T00:53:10;2.65;;;2.10;;
57778;SDS011;43608;49.486;9.640;2023-04-15T00:53:41;3.50;;;2.15;;
57778;SDS011;43608;49.486;9.640;2023-04-15T00:54:12;3.00;;;2.15;;
57778;SDS011;43608;49.486;9.640;2023-04-15T00:54:43;2.97;;;2.15;;
57778;SDS011;43608;49.486;9.640;2023-04-15T00:55:13;2.78;;;2.13;;
57778;SDS011;43608;49.486;9.640;2023-04-15T00:55:44;3.10;;;2.20;;
57778;SDS011;43608;49.486;9.640;2023-04-15T00:56:14;2.42;;;2.10;;
57778;SDS011;43608;49.486;9.640;2023-04-15T00:56:44;2.45;;;2.20;;
57778;SDS011;43608;49.486;9.640;2023-04-15T00:57:15;2.63;;;2.20;;
57778;SDS011;43608;49.486;9.640;2023-04-15T00:57:45;3.50;;;2.28;;
57778;SDS011;43608;49.486;9.640;2023-04-15T00:58:16;3.42;;;2.40;;
57778;SDS011;43608;49.486;9.640;2023-04-15T00:58:47;3.20;;;2.25;;
57778;SDS011;43608;49.486;9.640;2023-04-15T00:59:17;2.28;;;2.05;;
57778;SDS011;43608;49.486;9.640;2023-04-15T00:59:49;3.00;;;2.17;;
57778;SDS011;43608;49.486;9.640;2023-04-15T01:00:21;3.35;;;2.20;;
57778;SDS011;43608;49.486;9.640;2023-04-15T01:00:53;3.17;;;2.28;;
57778;SDS011;43608;49.486;9.640;2023-04-15T01:01:25;2.63;;;2.20;;
57778;SDS011;43608;49.486;9.640;2023-04-15T01:01:55;3.08;;;2.00;;
57778;SDS011;43608;49.486;9.640;2023-04-15T01:02:26;2.50;;;2.00;;
57778;SDS011;43608;49.486;9.640;2023-04-15T01:02:56;2.25;;;2.00;;
57778;SDS011;43608;49.486;9.640;2023-04-15T01:03:27;3.00;;;2.00;;
57778;SDS011;43608;49.486;9.640;2023-04-15T01:03:58;2.50;;;2.10;;
57778;SDS011;43608;49.486;9.640;2023-04-15T01:04:29;2.10;;;1.90;;
57778;SDS011;43608;49.486;9.640;2023-04-15T01:04:59;2.55;;;1.90;;
57778;SDS011;43608;49.486;9.640;2023-04-15T01:05:30;2.38;;;2.00;;
57778;SDS011;43608;49.486;9.640;2023-04-15T01:06:01;3.20;;;2.20;;
57778;SDS011;43608;49.486;9.640;2023-04-15T01:06:32;2.20;;;1.95;;
57778;SDS011;43608;49.486;9.640;2023-04-15T01:07:02;2.63;;;2.15;;
57778;SDS011;43608;49.486;9.640;2023-04-15T01:07:33;2.67;;;2.00;;
57778;SDS011;43608;49.486;9.640;2023-04-15T01:08:04;2.63;;;2.03;;
57778;SDS011;43608;49.486;9.640;2023-04-15T01:08:35;2.35;;;1.85;;
57778;SDS011;43608;49.486;9.640;2023-04-15T01:09:05;2.88;;;2.00;;
57778;SDS011;43608;49.486;9.640;2023-04-15T01:09:35;3.25;;;2.20;;
57778;SDS011;43608;49.486;9.640;2023-04-15T01:10:06;2.78;;;2.20;;
57778;SDS011;43608;49.486;9.640;2023-04-15T01:10:37;2.47;;;2.03;;
57778;SDS011;43608;49.486;9.640;2023-04-15T01:11:08;2.58;;;2.00;;
57778;SDS011;43608;49.486;9.640;2023-04-15T01:11:39;2.42;;;2.00;;
57778;SDS011;43608;49.486;9.640;2023-04-15T01:12:11;2.10;;;1.80;;
57778;SDS011;43608;49.486;9.640;2023-04-15T01:12:43;2.30;;;2.00;;
57778;SDS011;43608;49.486;9.640;2023-04-15T01:13:14;2.22;;;2.00;;
57778;SDS011;43608;49.486;9.640;2023-04-15T01:13:44;2.08;;;1.83;;
57778;SDS011;43608;49.486;9.640;2023-04-15T01:14:15;2.70;;;2.15;;
57778;SDS011;43608;49.486;9.640;2023-04-15T01:14:46;2.40;;;2.08;;
57778;SDS011;43608;49.486;9.640;2023-04-15T01:15:16;2.00;;;1.80;;
57778;SDS011;43608;49.486;9.640;2023-04-15T01:15:47;2.10;;;1.90;;
57778;SDS011;43608;49.486;9.640;2023-04-15T01:16:18;2.40;;;2.00;;
57778;SDS011;43608;49.486;9.640;2023-04-15T01:16:49;2.88;;;2.10;;
57778;SDS011;43608;49.486;9.640;2023-04-15T01:17:19;2.10;;;1.90;;
57778;SDS011;43608;49.486;9.640;2023-04-15T01:17:50;2.47;;;2.00;;
57778;SDS011;43608;49.486;9.640;2023-04-15T01:18:21;2.50;;;2.00;;
57778;SDS011;43608;49.486;9.640;2023-04-15T01:18:52;2.67;;;1.98;;
57778;SDS011;43608;49.486;9.640;2023-04-15T01:19:23;2.60;;;2.00;;
57778;SDS011;43608;49.486;9.640;2023-04-15T01:19:54;2.70;;;2.00;;
57778;SDS011;43608;49.486;9.640;2023-04-15T01:20:27;2.20;;;1.90;;
57778;SDS011;43608;49.486;9.640;2023-04-15T01:20:59;2.10;;;1.90;;
57778;SDS011;43608;49.486;9.640;2023-04-15T01:21:31;2.40;;;2.20;;
57778;SDS011;43608;49.486;9.640;2023-04-15T01:22:02;2.30;;;1.98;;
57778;SDS011;43608;49.486;9.640;2023-04-15T01:22:34;2.05;;;1.80;;
57778;SDS011;43608;49.486;9.640;2023-04-15T01:23:04;2.60;;;2.13;;
57778;SDS011;43608;49.486;9.640;2023-04-15T01:23:36;2.50;;;2.00;;
57778;SDS011;43608;49.486;9.640;2023-04-15T01:24:10;2.42;;;2.10;;
57778;SDS011;43608;49.486;9.640;2023-04-15T01:24:44;2.70;;;1.90;;
57778;SDS011;43608;49.486;9.640;2023-04-15T01:25:30;2.28;;;1.95;;
57778;SDS011;43608;49.486;9.640;2023-04-15T01:26:02;2.10;;;1.90;;
57778;SDS011;43608;49.486;9.640;2023-04-15T01:26:33;3.40;;;2.10;;
57778;SDS011;43608;49.486;9.640;2023-04-15T01:27:03;2.45;;;2.08;;
57778;SDS011;43608;49.486;9.640;2023-04-15T01:27:34;2.85;;;2.13;;
57778;SDS011;43608;49.486;9.640;2023-04-15T01:28:07;2.42;;;2.00;;
57778;SDS011;43608;49.486;9.640;2023-04-15T01:28:38;2.15;;;1.90;;
57778;SDS011;43608;49.486;9.640;2023-04-15T01:29:09;2.70;;;2.20;;
57778;SDS011;43608;49.486;9.640;2023-04-15T01:29:39;2.65;;;2.00;;
57778;SDS011;43608;49.486;9.640;2023-04-15T01:30:10;2.60;;;2.10;;
57778;SDS011;43608;49.486;9.640;2023-04-15T01:30:41;2.55;;;2.00;;
57778;SDS011;43608;49.486;9.640;2023-04-15T01:31:13;3.00;;;2.10;;
57778;SDS011;43608;49.486;9.640;2023-04-15T01:31:50;2.63;;;2.00;;
57778;SDS011;43608;49.486;9.640;2023-04-15T01:32:21;2.47;;;2.00;;
57778;SDS011;43608;49.486;9.640;2023-04-15T01:32:52;3.70;;;2.10;;
57778;SDS011;43608;49.486;9.640;2023-04-15T01:33:23;2.88;;;2.03;;
57778;SDS011;43608;49.486;9.640;2023-04-15T01:33:53;2.60;;;2.10;;
57778;SDS011;43608;49.486;9.640;2023-04-15T01:34:23;2.78;;;2.03;;
57778;SDS011;43608;49.486;9.640;2023-04-15T01:34:54;2.35;;;1.90;;
57778;SDS011;43608;49.486;9.640;2023-04-15T01:35:24;2.38;;;2.00;;
57778;SDS011;43608;49.486;9.640;2023-04-15T01:35:56;2.28;;;1.95;;
57778;SDS011;43608;49.486;9.640;2023-04-15T01:36:26;2.67;;;2.10;;
57778;SDS011;43608;49.486;9.640;2023-04-15T01:36:57;1.88;;;1.77;;
57778;SDS011;43608;49.486;9.640;2023-04-15T01:37:27;2.38;;;2.00;;
57778;SDS011;43608;49.486;9.640;2023-04-15T01:38:06;2.58;;;2.00;;
57778;SDS011;43608;49.486;9.640;2023-04-15T01:38:38;2.10;;;1.90;;
57778;SDS011;43608;49.486;9.640;2023-04-15T01:39:08;1.80;;;1.70;;
57778;SDS011;43608;49.486;9.640;2023-04-15T01:39:39;2.60;;;2.15;;
57778;SDS011;43608;49.486;9.640;2023-04-15T01:40:10;3.38;;;2.00;;
57778;SDS011;43608;49.486;9.640;2023-04-15T01:40:40;2.00;;;1.80;;
57778;SDS011;43608;49.486;9.640;2023-04-15T01:41:11;2.60;;;2.10;;
57778;SDS011;43608;49.486;9.640;2023-04-15T01:41:42;2.38;;;1.90;;
57778;SDS011;43608;49.486;9.640;2023-04-15T01:42:13;2.20;;;1.90;;
57778;SDS011;43608;49.486;9.640;2023-04-15T01:42:44;2.90;;;1.90;;
57778;SDS011;43608;49.486;9.640;2023-04-15T01:43:14;2.17;;;1.98;;
57778;SDS011;43608;49.486;9.640;2023-04-15T01:43:44;2.08;;;1.88;;
57778;SDS011;43608;49.486;9.640;2023-04-15T01:44:15;2.22;;;2.00;;
57778;SDS011;43608;49.486;9.640;2023-04-15T01:44:45;2.20;;;2.00;;
57778;SDS011;43608;49.486;9.640;2023-04-15T01:45:16;2.75;;;2.08;;
57778;SDS011;43608;49.486;9.640;2023-04-15T01:45:47;2.65;;;2.00;;
57778;SDS011;43608;49.486;9.640;2023-04-15T01:46:17;2.55;;;2.15;;
57778;SDS011;43608;49.486;9.640;2023-04-15T01:46:48;2.40;;;2.20;;
57778;SDS011;43608;49.486;9.640;2023-04-15T01:47:18;2.25;;;2.00;;
57778;SDS011;43608;49.486;9.640;2023-04-15T01:47:48;3.13;;;1.98;;
57778;SDS011;43608;49.486;9.640;2023-04-15T01:48:19;2.17;;;1.98;;
57778;SDS011;43608;49.486;9.640;2023-04-15T01:48:50;2.72;;;2.20;;
57778;SDS011;43608;49.486;9.640;2023-04-15T01:49:20;2.67;;;2.00;;
57778;SDS011;43608;49.486;9.640;2023-04-15T01:49:51;2.67;;;2.00;;
57778;SDS011;43608;49.486;9.640;2023-04-15T01:50:21;2.33;;;2.10;;
57778;SDS011;43608;49.486;9.640;2023-04-15T01:50:53;2.65;;;2.10;;
57778;SDS011;43608;49.486;9.640;2023-04-15T01:51:24;3.70;;;2.30;;
57778;SDS011;43608;49.486;9.640;2023-04-15T01:51:54;2.45;;;2.10;;
57778;SDS011;43608;49.486;9.640;2023-04-15T01:52:24;2.85;;;2.20;;
57778;SDS011;43608;49.486;9.640;2023-04-15T01:52:55;2.10;;;1.90;;
57778;SDS011;43608;49.486;9.640;2023-04-15T01:53:26;2.22;;;1.90;;
57778;SDS011;43608;49.486;9.640;2023-04-15T01:53:56;2.15;;;1.98;;
57778;SDS011;43608;49.486;9.640;2023-04-15T01:54:26;2.50;;;1.90;;
57778;SDS011;43608;49.486;9.640;2023-04-15T01:54:57;2.47;;;2.03;;
57778;SDS011;43608;49.486;9.640;2023-04-15T01:55:27;2.10;;;1.90;;
57778;SDS011;43608;49.486;9.640;2023-04-15T01:55:58;2.30;;;1.80;;
57778;SDS011;43608;49.486;9.640;2023-04-15T01:56:28;2.58;;;2.08;;
57778;SDS011;43608;49.486;9.640;2023-04-15T01:56:58;1.80;;;1.70;;
57778;SDS011;43608;49.486;9.640;2023-04-15T01:57:29;2.20;;;1.90;;
57778;SDS011;43608;49.486;9.640;2023-04-15T01:57:59;2.10;;;1.90;;
57778;SDS011;43608;49.486;9.640;2023-04-15T01:58:30;2.53;;;1.92;;
57778;SDS011;43608;49.486;9.640;2023-04-15T01:59:01;2.35;;;2.00;;
57778;SDS011;43608;49.486;9.640;2023-04-15T01:59:32;2.50;;;2.00;;
57778;SDS011;43608;49.486;9.640;2023-04-15T02:00:03;2.17;;;1.90;;
57778;SDS011;43608;49.486;9.640;2023-04-15T02:00:34;2.03;;;1.83;;
57778;SDS011;43608;49.486;9.640;2023-04-15T02:01:04;2.35;;;1.90;;
57778;SDS011;43608;49.486;9.640;2023-04-15T02:01:35;2.92;;;2.00;;
57778;SDS011;43608;49.486;9.640;2023-04-15T02:02:05;2.10;;;1.90;;
57778;SDS011;43608;49.486;9.640;2023-04-15T02:02:35;2.22;;;2.00;;
57778;SDS011;43608;49.486;9.640;2023-04-15T02:03:06;2.22;;;2.00;;
57778;SDS011;43608;49.486;9.640;2023-04-15T02:03:37;2.10;;;1.90;;
57778;SDS011;43608;49.486;9.640;2023-04-15T02:04:08;2.30;;;2.10;;
57778;SDS011;43608;49.486;9.640;2023-04-15T02:04:45;2.72;;;2.17;;
57778;SDS011;43608;49.486;9.640;2023-04-15T02:05:15;2.30;;;2.10;;
57778;SDS011;43608;49.486;9.640;2023-04-15T02:05:46;2.03;;;1.83;;
57778;SDS011;43608;49.486;9.640;2023-04-15T02:06:16;2.58;;;2.00;;
57778;SDS011;43608;49.486;9.640;2023-04-15T02:06:47;2.30;;;2.10;;
57778;SDS011;43608;49.486;9.640;2023-04-15T02:07:17;2.53;;;2.10;;
57778;SDS011;43608;49.486;9.640;2023-04-15T02:07:48;2.15;;;1.90;;
57778;SDS011;43608;49.486;9.640;2023-04-15T02:08:19;2.42;;;2.20;;
57778;SDS011;43608;49.486;9.640;2023-04-15T02:08:49;2.55;;;2.03;;
57778;SDS011;43608;49.486;9.640;2023-04-15T02:09:19;2.90;;;2.13;;
57778;SDS011;43608;49.486;9.640;2023-04-15T02:09:50;2.55;;;1.92;;
57778;SDS011;43608;49.486;9.640;2023-04-15T02:10:20;2.25;;;2.00;;
57778;SDS011;43608;49.486;9.640;2023-04-15T02:10:51;2.53;;;2.03;;
57778;SDS011;43608;49.486;9.640;2023-04-15T02:11:21;3.00;;;2.10;;
57778;SDS011;43608;49.486;9.640;2023-04-15T02:11:52;2.70;;;2.10;;
57778;SDS011;43608;49.486;9.640;2023-04-15T02:12:25;2.28;;;2.05;;
57778;SDS011;43608;49.486;9.640;2023-04-15T02:12:56;2.67;;;2.05;;
57778;SDS011;43608;49.486;9.640;2023-04-15T02:13:26;2.88;;;1.90;;
57778;SDS011;43608;49.486;9.640;2023-04-15T02:13:56;2.92;;;1.90;;
57778;SDS011;43608;49.486;9.640;2023-04-15T02:14:27;2.30;;;2.00;;
57778;SDS011;43608;49.486;9.640;2023-04-15T02:14:57;2.67;;;2.00;;
57778;SDS011;43608;49.486;9.640;2023-04-15T02:15:27;2.28;;;2.08;;
57778;SDS011;43608;49.486;9.640;2023-04-15T02:15:58;1.83;;;1.73;;
57778;SDS011;43608;49.486;9.640;2023-04-15T02:16:28;2.17;;;1.98;;
57778;SDS011;43608;49.486;9.640;2023-04-15T02:16:59;1.98;;;1.77;;
57778;SDS011;43608;49.486;9.640;2023-04-15T02:17:36;1.98;;;1.77;;
57778;SDS011;43608;49.486;9.640;2023-04-15T02:18:06;2.10;;;1.90;;
57778;SDS011;43608;49.486;9.640;2023-04-15T02:18:37;2.08;;;1.80;;
57778;SDS011;43608;49.486;9.640;2023-04-15T02:19:07;2.00;;;1.80;;
57778;SDS011;43608;49.486;9.640;2023-04-15T02:19:38;2.13;;;1.90;;
57778;SDS011;43608;49.486;9.640;2023-04-15T02:20:09;2.20;;;1.98;;
57778;SDS011;43608;49.486;9.640;2023-04-15T02:20:40;2.33;;;1.85;;
57778;SDS011;43608;49.486;9.640;2023-04-15T02:21:12;1.90;;;1.80;;
57778;SDS011;43608;49.486;9.640;2023-04-15T02:21:43;2.28;;;2.00;;
57778;SDS011;43608;49.486;9.640;2023-04-15T02:22:13;2.08;;;1.83;;
57778;SDS011;43608;49.486;9.640;2023-04-15T02:22:47;2.90;;;1.92;;
57778;SDS011;43608;49.486;9.640;2023-04-15T02:23:18;2.30;;;1.70;;
57778;SDS011;43608;49.486;9.640;2023-04-15T02:23:48;2.22;;;2.00;;
57778;SDS011;43608;49.486;9.640;2023-04-15T02:24:20;2.88;;;2.40;;
57778;SDS011;43608;49.486;9.640;2023-04-15T02:24:51;2.65;;;2.00;;
57778;SDS011;43608;49.486;9.640;2023-04-15T02:25:21;2.40;;;2.00;;
57778;SDS011;43608;49.486;9.640;2023-04-15T02:25:52;2.47;;;2.10;;
57778;SDS011;43608;49.486;9.640;2023-04-15T02:26:22;2.35;;;2.13;;
57778;SDS011;43608;49.486;9.640;2023-04-15T02:26:54;2.63;;;2.05;;
57778;SDS011;43608;49.486;9.640;2023-04-15T02:27:25;2.10;;;1.90;;
57778;SDS011;43608;49.486;9.640;2023-04-15T02:27:56;2.20;;;1.90;;
57778;SDS011;43608;49.486;9.640;2023-04-15T02:28:26;2.42;;;2.05;;
57778;SDS011;43608;49.486;9.640;2023-04-15T02:28:57;2.60;;;2.00;;
57778;SDS011;43608;49.486;9.640;2023-04-15T02:29:28;2.00;;;1.80;;
57778;SDS011;43608;49.486;9.640;2023-04-15T02:30:01;1.88;;;1.77;;
57778;SDS011;43608;49.486;9.640;2023-04-15T02:30:32;2.35;;;1.90;;
57778;SDS011;43608;49.486;9.640;2023-04-15T02:31:06;1.73;;;1.63;;
57778;SDS011;43608;49.486;9.640;2023-04-15T02:31:37;2.40;;;2.10;;
57778;SDS011;43608;49.486;9.640;2023-04-15T02:32:09;2.20;;;2.00;;
57778;SDS011;43608;49.486;9.640;2023-04-15T02:32:40;2.50;;;2.08;;
57778;SDS011;43608;49.486;9.640;2023-04-15T02:33:13;2.60;;;2.00;;
57778;SDS011;43608;49.486;9.640;2023-04-15T02:33:44;2.28;;;1.98;;
57778;SDS011;43608;49.486;9.640;2023-04-15T02:34:14;2.20;;;1.92;;
57778;SDS011;43608;49.486;9.640;2023-04-15T02:34:45;2.92;;;2.17;;
57778;SDS011;43608;49.486;9.640;2023-04-15T02:35:15;2.42;;;2.00;;
57778;SDS011;43608;49.486;9.640;2023-04-15T02:35:48;2.20;;;2.00;;
57778;SDS011;43608;49.486;9.640;2023-04-15T02:36:18;2.10;;;1.83;;
57778;SDS011;43608;49.486;9.640;2023-04-15T02:36:50;2.70;;;1.98;;
57778;SDS011;43608;49.486;9.640;2023-04-15T02:37:23;2.20;;;1.90;;
57778;SDS011;43608;49.486;9.640;2023-04-15T02:37:56;2.58;;;1.90;;
57778;SDS011;43608;49.486;9.640;2023-04-15T02:38:27;2.10;;;1.90;;
57778;SDS011;43608;49.486;9.640;2023-04-15T02:38:57;2.20;;;2.00;;
57778;SDS011;43608;49.486;9.640;2023-04-15T02:39:27;2.80;;;2.03;;
57778;SDS011;43608;49.486;9.640;2023-04-15T02:39:58;2.83;;;2.00;;
57778;SDS011;43608;49.486;9.640;2023-04-15T02:40:28;2.20;;;1.92;;
57778;SDS011;43608;49.486;9.640;2023-04-15T02:40:59;2.05;;;1.85;;
57778;SDS011;43608;49.486;9.640;2023-04-15T02:41:29;2.65;;;2.00;;
57778;SDS011;43608;49.486;9.640;2023-04-15T02:41:59;2.67;;;2.00;;
57778;SDS011;43608;49.486;9.640;2023-04-15T02:42:30;2.42;;;1.80;;
57778;SDS011;43608;49.486;9.640;2023-04-15T02:43:00;2.33;;;2.03;;
57778;SDS011;43608;49.486;9.640;2023-04-15T02:43:31;2.17;;;1.88;;
57778;SDS011;43608;49.486;9.640;2023-04-15T02:44:01;2.35;;;1.95;;
57778;SDS011;43608;49.486;9.640;2023-04-15T02:44:32;2.22;;;1.90;;
57778;SDS011;43608;49.486;9.640;2023-04-15T02:45:04;2.08;;;1.77;;
57778;SDS011;43608;49.486;9.640;2023-04-15T02:45:36;2.30;;;2.00;;
57778;SDS011;43608;49.486;9.640;2023-04-15T02:46:06;2.15;;;1.95;;
57778;SDS011;43608;49.486;9.640;2023-04-15T02:46:37;2.58;;;1.98;;
57778;SDS011;43608;49.486;9.640;2023-04-15T02:47:07;2.30;;;1.90;;
57778;SDS011;43608;49.486;9.640;2023-04-15T02:47:37;2.20;;;1.80;;
57778;SDS011;43608;49.486;9.640;2023-04-15T02:48:10;2.22;;;1.90;;
57778;SDS011;43608;49.486;9.640;2023-04-15T02:48:40;2.30;;;1.80;;
57778;SDS011;43608;49.486;9.640;2023-04-15T02:49:11;2.75;;;2.00;;
57778;SDS011;43608;49.486;9.640;2023-04-15T02:49:41;2.42;;;1.92;;
57778;SDS011;43608;49.486;9.640;2023-04-15T02:50:11;2.88;;;2.20;;
57778;SDS011;43608;49.486;9.640;2023-04-15T02:50:44;2.17;;;1.90;;
57778;SDS011;43608;49.486;9.640;2023-04-15T02:51:19;2.00;;;1.77;;
57778;SDS011;43608;49.486;9.640;2023-04-15T02:51:51;2.05;;;1.90;;
57778;SDS011;43608;49.486;9.640;2023-04-15T02:52:21;2.33;;;2.00;;
57778;SDS011;43608;49.486;9.640;2023-04-15T02:52:53;2.53;;;1.80;;
57778;SDS011;43608;49.486;9.640;2023-04-15T02:53:23;2.10;;;1.83;;
57778;SDS011;43608;49.486;9.640;2023-04-15T02:53:54;2.92;;;2.10;;
57778;SDS011;43608;49.486;9.640;2023-04-15T02:54:25;2.42;;;1.90;;
57778;SDS011;43608;49.486;9.640;2023-04-15T02:54:58;2.95;;;2.25;;
57778;SDS011;43608;49.486;9.640;2023-04-15T02:55:31;3.03;;;2.08;;
57778;SDS011;43608;49.486;9.640;2023-04-15T02:56:02;2.03;;;1.83;;
57778;SDS011;43608;49.486;9.640;2023-04-15T02:56:32;2.30;;;1.90;;
57778;SDS011;43608;49.486;9.640;2023-04-15T02:57:02;2.53;;;2.00;;
57778;SDS011;43608;49.486;9.640;2023-04-15T02:57:35;2.25;;;1.80;;
57778;SDS011;43608;49.486;9.640;2023-04-15T02:58:10;2.00;;;1.80;;
57778;SDS011;43608;49.486;9.640;2023-04-15T02:58:40;2.70;;;2.10;;
57778;SDS011;43608;49.486;9.640;2023-04-15T02:59:12;1.95;;;1.75;;
57778;SDS011;43608;49.486;9.640;2023-04-15T02:59:42;3.10;;;2.03;;
57778;SDS011;43608;49.486;9.640;2023-04-15T03:00:12;2.47;;;1.90;;
57778;SDS011;43608;49.486;9.640;2023-04-15T03:00:43;1.98;;;1.77;;
57778;SDS011;43608;49.486;9.640;2023-04-15T03:01:13;2.55;;;1.80;;
57778;SDS011;43608;49.486;9.640;2023-04-15T03:01:44;2.58;;;1.90;;
57778;SDS011;43608;49.486;9.640;2023-04-15T03:02:14;2.30;;;1.88;;
57778;SDS011;43608;49.486;9.640;2023-04-15T03:02:45;2.03;;;1.80;;
57778;SDS011;43608;49.486;9.640;2023-04-15T03:03:15;2.65;;;1.92;;
57778;SDS011;43608;49.486;9.640;2023-04-15T03:03:46;2.15;;;1.90;;
57778;SDS011;43608;49.486;9.640;2023-04-15T03:04:16;2.42;;;2.00;;
57778;SDS011;43608;49.486;9.640;2023-04-15T03:04:47;3.20;;;2.15;;
57778;SDS011;43608;49.486;9.640;2023-04-15T03:05:17;1.95;;;1.75;;
57778;SDS011;43608;49.486;9.640;2023-04-15T03:05:48;2.67;;;1.90;;
57778;SDS011;43608;49.486;9.640;2023-04-15T03:06:18;2.13;;;1.90;;
57778;SDS011;43608;49.486;9.640;2023-04-15T03:06:48;3.25;;;1.88;;